createdAt,value
2022-12-17T00:02:33.122Z,98680.90
2022-12-17T00:06:07.760Z,98674.67
2022-12-17T00:09:31.129Z,98672.88
2022-12-17T00:12:54.105Z,98680.46
2022-12-17T00:16:19.718Z,98677.76
2022-12-17T00:19:43.276Z,98675.63
2022-12-17T00:23:06.641Z,98686.03
2022-12-17T00:26:30.009Z,98693.34
2022-12-17T00:29:53.277Z,98699.15
2022-12-17T00:33:18.995Z,98703.02
2022-12-17T00:36:42.668Z,98699.73
2022-12-17T00:40:20.781Z,98705.42
2022-12-17T00:43:44.458Z,98713.30
2022-12-17T00:47:07.744Z,98717.27
2022-12-17T00:50:31.189Z,98729.52
2022-12-17T00:53:54.353Z,98739.23
2022-12-17T00:57:18.333Z,98745.55
2022-12-17T01:00:41.767Z,98740.07
2022-12-17T01:04:04.783Z,98722.73
2022-12-17T01:07:27.929Z,98722.83
2022-12-17T01:10:51.186Z,98742.54
2022-12-17T01:14:14.450Z,98758.28
2022-12-17T01:17:37.920Z,98757.91
2022-12-17T01:21:00.879Z,98761.23
2022-12-17T01:24:33.666Z,98767.79
2022-12-17T01:27:56.731Z,98762.91
2022-12-17T01:31:20.322Z,98767.86
2022-12-17T01:34:40.082Z,98768.70
2022-12-17T01:38:03.966Z,98763.86
2022-12-17T01:41:27.835Z,98763.67
2022-12-17T01:45:13.218Z,98764.55
2022-12-17T01:48:36.419Z,98764.23
2022-12-17T01:51:59.749Z,98754.14
2022-12-17T01:55:25.269Z,98747.08
2022-12-17T01:58:49.658Z,98749.95
2022-12-17T02:02:12.894Z,98754.45
2022-12-17T02:05:37.441Z,98758.34
2022-12-17T02:09:11.521Z,98755.44
2022-12-17T02:12:44.121Z,98751.15
2022-12-17T02:16:13.021Z,98747.60
2022-12-17T02:19:48.578Z,98740.63
2022-12-17T02:23:20.537Z,98746.77
2022-12-17T02:26:54.893Z,98749.02
2022-12-17T02:30:20.788Z,98749.04
2022-12-17T02:33:43.233Z,98747.48
2022-12-17T02:37:06.703Z,98763.42
2022-12-17T02:40:31.515Z,98771.14
2022-12-17T02:43:55.723Z,98771.52
2022-12-17T02:47:21.513Z,98773.52
2022-12-17T02:50:44.983Z,98779.86
2022-12-17T02:54:13.062Z,98817.92
2022-12-17T02:57:38.084Z,98858.30
2022-12-17T03:01:04.392Z,98874.58
2022-12-17T03:04:27.876Z,98871.41
2022-12-17T03:07:51.334Z,98848.92
2022-12-17T03:11:25.868Z,98851.85
2022-12-17T03:14:49.030Z,98863.61
2022-12-17T03:18:12.910Z,98868.23
2022-12-17T03:21:36.176Z,98866.05
2022-12-17T03:24:59.488Z,98859.33
2022-12-17T03:28:26.213Z,98838.14
2022-12-17T03:31:49.553Z,98830.54
2022-12-17T03:35:12.824Z,98837.98
2022-12-17T03:38:36.083Z,98833.37
2022-12-17T03:41:59.250Z,98830.48
2022-12-17T03:45:23.021Z,98837.17
2022-12-17T03:48:46.285Z,98832.05
2022-12-17T03:52:09.756Z,98829.02
2022-12-17T03:55:33.076Z,98834.12
2022-12-17T03:58:56.308Z,98843.12
2022-12-17T04:02:20.649Z,98840.86
2022-12-17T04:05:44.554Z,98846.06
2022-12-17T04:09:07.820Z,98853.79
2022-12-17T04:12:30.980Z,98859.68
2022-12-17T04:15:54.251Z,98871.52
2022-12-17T04:19:17.542Z,98879.29
2022-12-17T04:22:48.863Z,98880.88
2022-12-17T04:26:11.797Z,98884.89
2022-12-17T04:29:34.984Z,98892.73
2022-12-17T04:32:57.874Z,98902.92
2022-12-17T04:36:21.306Z,98905.79
2022-12-17T04:39:44.572Z,98901.38
2022-12-17T04:43:07.657Z,98899.54
2022-12-17T04:46:30.842Z,98891.14
2022-12-17T04:49:54.369Z,98884.17
2022-12-17T04:53:21.932Z,98882.94
2022-12-17T04:56:46.014Z,98889.14
2022-12-17T05:00:09.077Z,98893.23
2022-12-17T05:03:35.120Z,98890.91
2022-12-17T05:06:58.575Z,98894.11
2022-12-17T05:10:27.368Z,98895.44
2022-12-17T05:13:50.632Z,98900.23
2022-12-17T05:17:13.703Z,98909.89
2022-12-17T05:20:36.957Z,98911.95
2022-12-17T05:23:56.534Z,98911.97
2022-12-17T05:27:19.801Z,98915.41
2022-12-17T05:30:43.161Z,98908.39
2022-12-17T05:34:06.431Z,98903.16
2022-12-17T05:37:30.009Z,98904.55
2022-12-17T05:40:53.780Z,98911.82
2022-12-17T05:44:17.047Z,98919.91
2022-12-17T05:47:40.616Z,98927.54
2022-12-17T05:51:07.463Z,98924.52
2022-12-17T05:54:30.833Z,98926.08
2022-12-17T05:57:56.578Z,98928.26
2022-12-17T06:01:22.119Z,98929.48
2022-12-17T06:04:45.189Z,98931.05
2022-12-17T06:08:08.497Z,98937.57
2022-12-17T06:11:32.069Z,98943.86
2022-12-17T06:14:55.748Z,98949.96
2022-12-17T06:18:19.519Z,98960.98
2022-12-17T06:21:43.399Z,98971.88
2022-12-17T06:25:06.463Z,98982.10
2022-12-17T06:28:44.712Z,98986.51
2022-12-17T06:32:08.247Z,98991.63
2022-12-17T06:35:31.513Z,98994.02
2022-12-17T06:38:54.775Z,98994.66
2022-12-17T06:42:17.734Z,99001.88
2022-12-17T06:45:41.206Z,99011.41
2022-12-17T06:49:05.480Z,99020.67
2022-12-17T06:52:28.790Z,99032.61
2022-12-17T06:55:52.031Z,99039.12
2022-12-17T06:59:15.286Z,99048.64
2022-12-17T07:02:38.868Z,99052.36
2022-12-17T07:06:02.633Z,99062.11
2022-12-17T07:09:26.307Z,99082.04
2022-12-17T07:12:49.878Z,99099.21
2022-12-17T07:16:13.766Z,99095.05
2022-12-17T07:19:37.329Z,99091.92
2022-12-17T07:23:00.391Z,99087.13
2022-12-17T07:26:24.181Z,99083.29
2022-12-17T07:29:47.124Z,99084.13
2022-12-17T07:33:18.017Z,99087.44
2022-12-17T07:36:41.133Z,99086.71
2022-12-17T07:40:04.597Z,99098.74
2022-12-17T07:43:32.265Z,99105.05
2022-12-17T07:46:55.150Z,99110.52
2022-12-17T07:50:18.390Z,99117.44
2022-12-17T07:53:41.773Z,99122.25
2022-12-17T07:57:05.225Z,99128.44
2022-12-17T08:00:31.151Z,99131.91
2022-12-17T08:03:52.878Z,99137.48
2022-12-17T08:07:16.142Z,99143.11
2022-12-17T08:10:41.761Z,99152.11
2022-12-17T08:14:05.380Z,99159.77
2022-12-17T08:17:28.699Z,99170.36
2022-12-17T08:20:52.164Z,99178.76
2022-12-17T08:24:15.855Z,99183.93
2022-12-17T08:27:39.209Z,99185.77
2022-12-17T08:31:05.987Z,99186.52
2022-12-17T08:34:29.631Z,99190.89
2022-12-17T08:37:52.796Z,99200.86
2022-12-17T08:41:18.040Z,99205.98
2022-12-17T08:44:41.780Z,99206.01
2022-12-17T08:48:04.956Z,99208.67
2022-12-17T08:51:27.799Z,99210.86
2022-12-17T08:54:51.165Z,99214.41
2022-12-17T08:58:15.964Z,99215.77
2022-12-17T09:01:53.919Z,99221.70
2022-12-17T09:05:17.239Z,99232.66
2022-12-17T09:08:40.709Z,99230.07
2022-12-17T09:12:04.178Z,99229.80
2022-12-17T09:15:28.671Z,99234.30
2022-12-17T09:18:52.243Z,99227.84
2022-12-17T09:22:15.208Z,99220.52
2022-12-17T09:25:38.519Z,99215.56
2022-12-17T09:29:01.657Z,99217.13
2022-12-17T09:32:25.089Z,99216.23
2022-12-17T09:35:48.253Z,99215.65
2022-12-17T09:39:10.398Z,99213.70
2022-12-17T09:42:45.550Z,99213.83
2022-12-17T09:46:21.953Z,99213.34
2022-12-17T09:49:47.531Z,99211.98
2022-12-17T09:53:11.259Z,99211.31
2022-12-17T09:56:37.238Z,99204.11
2022-12-17T10:00:00.810Z,99204.12
2022-12-17T10:03:29.133Z,99200.27
2022-12-17T10:06:54.094Z,99207.55
2022-12-17T10:10:22.683Z,99216.38
2022-12-17T10:13:45.743Z,99221.96
2022-12-17T10:17:12.073Z,99222.08
2022-12-17T10:20:40.678Z,99227.36
2022-12-17T10:24:03.832Z,99240.41
2022-12-17T10:27:30.679Z,99248.61
2022-12-17T10:30:51.324Z,99254.61
2022-12-17T10:34:17.107Z,99247.15
2022-12-17T10:37:41.191Z,99244.34
2022-12-17T10:41:04.456Z,99258.30
2022-12-17T10:44:43.798Z,99259.76
2022-12-17T10:48:21.601Z,99262.52
2022-12-17T10:51:51.215Z,99263.20
2022-12-17T10:55:20.632Z,99268.55
2022-12-17T10:58:48.293Z,99274.98
2022-12-17T11:02:18.649Z,99276.55
2022-12-17T11:05:46.392Z,99267.11
2022-12-17T11:09:10.271Z,99262.02
2022-12-17T11:12:35.893Z,99262.66
2022-12-17T11:16:05.397Z,99264.85
2022-12-17T11:19:50.374Z,99268.20
2022-12-17T11:23:16.514Z,99271.81
2022-12-17T11:26:52.422Z,99279.96
2022-12-17T11:30:15.938Z,99291.14
2022-12-17T11:33:58.779Z,99290.96
2022-12-17T11:37:32.975Z,99296.99
2022-12-17T11:41:00.549Z,99312.17
2022-12-17T11:44:33.028Z,99320.93
2022-12-17T11:48:06.021Z,99331.20
2022-12-17T11:51:36.351Z,99342.15
2022-12-17T11:55:21.727Z,99336.66
2022-12-17T11:58:54.113Z,99327.95
2022-12-17T12:02:25.506Z,99325.29
2022-12-17T12:06:15.664Z,99318.73
2022-12-17T12:09:47.426Z,99317.87
2022-12-17T12:13:23.185Z,99338.06
2022-12-17T12:16:52.385Z,99347.39
2022-12-17T12:20:23.439Z,99346.14
2022-12-17T12:23:56.945Z,99344.71
2022-12-17T12:27:35.535Z,99344.27
2022-12-17T12:31:13.193Z,99349.98
2022-12-17T12:34:43.187Z,99361.09
2022-12-17T12:38:06.861Z,99374.70
2022-12-17T12:41:38.012Z,99377.95
2022-12-17T12:45:08.037Z,99385.26
2022-12-17T12:48:44.484Z,99398.23
2022-12-17T12:52:10.954Z,99404.79
2022-12-17T12:55:34.007Z,99402.27
2022-12-17T12:58:56.351Z,99397.92
2022-12-17T13:02:19.882Z,99408.88
2022-12-17T13:55:28.585Z,99502.33
2022-12-17T13:58:33.601Z,99503.05
2022-12-17T14:01:46.141Z,99504.98
2022-12-17T14:04:52.780Z,99511.27
2022-12-17T14:07:58.620Z,99523.55
2022-12-17T14:11:23.015Z,99530.44
2022-12-17T14:14:31.633Z,99528.56
2022-12-17T14:17:40.232Z,99526.98
2022-12-17T14:20:43.555Z,99533.87
2022-12-17T14:23:49.821Z,99535.57
2022-12-17T14:26:52.782Z,99538.08
2022-12-17T14:29:56.823Z,99544.67
2022-12-17T14:32:59.944Z,99548.34
2022-12-17T14:36:06.256Z,99552.10
2022-12-17T14:39:17.664Z,99559.50
2022-12-17T14:42:25.594Z,99564.45
2022-12-17T14:45:29.177Z,99575.04
2022-12-17T14:48:46.525Z,99582.94
2022-12-17T14:51:50.264Z,99586.17
2022-12-17T14:54:53.096Z,99590.11
2022-12-17T14:58:14.816Z,99594.09
2022-12-17T15:01:18.094Z,99601.27
2022-12-17T15:04:21.969Z,99609.95
2022-12-17T15:07:27.183Z,99618.21
2022-12-17T15:10:29.929Z,99624.27
2022-12-17T15:13:33.153Z,99624.11
2022-12-17T15:16:35.952Z,99632.20
2022-12-17T15:19:38.828Z,99634.22
2022-12-17T15:22:41.627Z,99633.56
2022-12-17T15:25:47.026Z,99632.80
2022-12-17T15:28:50.546Z,99636.27
2022-12-17T15:31:53.355Z,99644.65
2022-12-17T15:34:56.121Z,99648.94
2022-12-17T15:37:59.161Z,99653.40
2022-12-17T15:41:22.897Z,99655.52
2022-12-17T15:44:26.491Z,99660.77
2022-12-17T15:47:29.376Z,99667.30
2022-12-17T15:50:32.167Z,99671.82
2022-12-17T15:53:35.560Z,99672.27
2022-12-17T15:56:38.542Z,99678.26
2022-12-17T15:59:41.323Z,99679.10
2022-12-17T16:02:44.301Z,99683.03
2022-12-17T16:05:47.337Z,99686.05
2022-12-17T16:08:50.143Z,99685.85
2022-12-17T16:11:54.421Z,99690.89
2022-12-17T16:14:57.196Z,99693.13
2022-12-17T16:17:59.990Z,99696.77
2022-12-17T16:21:03.613Z,99698.92
2022-12-17T16:24:07.680Z,99700.27
2022-12-17T16:27:10.420Z,99698.86
2022-12-17T16:30:14.891Z,99698.98
2022-12-17T16:33:17.652Z,99699.34
2022-12-17T16:36:21.812Z,99702.20
2022-12-17T16:39:24.578Z,99706.76
2022-12-17T16:42:27.595Z,99710.48
2022-12-17T16:45:30.342Z,99715.24
2022-12-17T16:48:38.480Z,99714.46
2022-12-17T16:51:41.871Z,99724.32
2022-12-17T16:54:44.662Z,99735.55
2022-12-17T16:57:47.422Z,99735.17
2022-12-17T17:00:55.005Z,99740.03
2022-12-17T17:03:58.186Z,99745.91
2022-12-17T17:07:01.228Z,99745.40
2022-12-17T17:10:04.940Z,99753.92
2022-12-17T17:13:07.740Z,99762.20
2022-12-17T17:16:11.250Z,99768.11
2022-12-17T17:19:14.348Z,99771.34
2022-12-17T17:22:17.197Z,99774.61
2022-12-17T17:25:19.981Z,99782.83
2022-12-17T17:28:22.766Z,99786.74
2022-12-17T17:31:46.483Z,99787.73
2022-12-17T17:34:48.720Z,99791.46
2022-12-17T17:37:51.460Z,99795.03
2022-12-17T17:40:57.791Z,99798.70
2022-12-17T17:44:00.234Z,99809.25
2022-12-17T17:47:03.778Z,99815.73
2022-12-17T17:50:08.413Z,99813.43
2022-12-17T17:53:11.133Z,99814.91
2022-12-17T17:56:16.908Z,99816.96
2022-12-17T17:59:20.103Z,99826.48
2022-12-17T18:02:22.998Z,99836.19
2022-12-17T18:05:26.083Z,99847.30
2022-12-17T18:08:30.311Z,99848.73
2022-12-17T18:11:33.541Z,99851.77
2022-12-17T18:14:41.840Z,99853.75
2022-12-17T18:17:46.639Z,99851.19
2022-12-17T18:20:49.399Z,99848.63
2022-12-17T18:23:56.221Z,99845.23
2022-12-17T18:26:59.088Z,99850.46
2022-12-17T18:30:01.873Z,99857.12
2022-12-17T18:33:04.840Z,99864.74
2022-12-17T18:36:16.424Z,99872.84
2022-12-17T18:39:21.690Z,99883.36
2022-12-17T18:42:42.904Z,99889.73
2022-12-17T18:45:46.003Z,99894.05
2022-12-17T18:48:51.065Z,99897.09
2022-12-17T18:51:55.915Z,99901.77
2022-12-17T18:54:58.956Z,99905.23
2022-12-17T18:58:01.745Z,99909.70
2022-12-17T19:01:05.380Z,99914.98
2022-12-17T19:04:12.027Z,99915.64
2022-12-17T19:07:15.756Z,99915.97
2022-12-17T19:10:18.870Z,99911.10
2022-12-17T19:13:21.942Z,99916.65
2022-12-17T19:16:27.272Z,99918.90
2022-12-17T19:19:30.250Z,99918.38
2022-12-17T19:22:33.324Z,99919.67
2022-12-17T19:25:36.420Z,99926.70
2022-12-17T19:28:40.527Z,99929.59
2022-12-17T19:31:46.741Z,99935.16
2022-12-17T19:34:49.596Z,99943.45
2022-12-17T19:37:53.373Z,99947.98
2022-12-17T19:40:56.396Z,99952.00
2022-12-17T19:44:04.604Z,99951.23
2022-12-17T19:47:07.849Z,99953.69
2022-12-17T19:50:12.057Z,99958.20
2022-12-17T19:53:14.833Z,99963.02
2022-12-17T19:56:20.059Z,99971.92
2022-12-17T19:59:23.421Z,99975.19
2022-12-17T20:02:32.315Z,99981.77
2022-12-17T20:05:36.367Z,99988.29
2022-12-17T20:08:40.554Z,99993.49
2022-12-17T20:11:53.286Z,99995.89
2022-12-17T20:14:58.305Z,100004.55
2022-12-17T20:18:01.364Z,100014.75
2022-12-17T20:21:06.938Z,100024.23
2022-12-17T20:24:11.501Z,100023.95
2022-12-17T20:27:14.661Z,100030.36
2022-12-17T20:30:22.197Z,100033.21
2022-12-17T20:33:25.505Z,100037.41
2022-12-17T20:36:44.152Z,100046.45
2022-12-17T20:39:47.301Z,100044.73
2022-12-17T20:42:52.400Z,100050.84
2022-12-17T20:45:55.619Z,100059.44
2022-12-17T20:49:00.014Z,100065.38
2022-12-17T20:52:03.292Z,100070.84
2022-12-17T20:55:07.851Z,100074.81
2022-12-17T20:58:12.947Z,100075.40
2022-12-17T21:01:18.862Z,100080.73
2022-12-17T21:04:22.131Z,100086.86
2022-12-17T21:07:24.952Z,100090.58
2022-12-17T21:10:28.209Z,100093.92
2022-12-17T21:13:31.325Z,100098.33
2022-12-17T21:16:35.166Z,100104.77
2022-12-17T21:19:38.085Z,100109.77
2022-12-17T21:22:42.442Z,100111.40
2022-12-17T21:25:45.306Z,100117.71
2022-12-17T21:28:50.473Z,100123.67
2022-12-17T21:31:53.332Z,100125.63
2022-12-17T21:34:56.424Z,100130.85
2022-12-17T21:37:59.152Z,100135.05
2022-12-17T21:41:07.142Z,100144.21
2022-12-17T21:44:12.758Z,100154.30
2022-12-17T21:47:16.289Z,100153.73
2022-12-17T21:50:20.690Z,100154.93
2022-12-17T21:53:23.848Z,100155.02
2022-12-17T21:56:27.184Z,100160.39
2022-12-17T21:59:31.067Z,100165.95
2022-12-17T22:02:34.330Z,100169.82
2022-12-17T22:05:38.676Z,100172.27
2022-12-17T22:08:42.727Z,100175.90
2022-12-17T22:11:45.896Z,100181.02
2022-12-17T22:14:48.905Z,100183.13
2022-12-17T22:17:53.430Z,100188.77
2022-12-17T22:21:01.825Z,100194.70
2022-12-17T22:24:06.348Z,100200.88
2022-12-17T22:27:09.727Z,100209.61
2022-12-17T22:30:34.168Z,100214.59
2022-12-17T22:34:07.252Z,100221.30
2022-12-17T22:38:29.360Z,100227.63
2022-12-17T22:44:29.672Z,100230.08
2022-12-17T22:44:42.340Z,100236.24
2022-12-17T22:47:08.033Z,100237.23
2022-12-17T22:50:11.492Z,100236.45
2022-12-17T22:53:14.747Z,100240.18
2022-12-17T22:56:35.689Z,100244.91
2022-12-17T22:59:41.586Z,100242.38
2022-12-17T23:02:44.381Z,100248.55
2022-12-17T23:05:47.176Z,100247.72
2022-12-17T23:08:50.423Z,100252.56
2022-12-17T23:11:53.276Z,100254.38
2022-12-17T23:14:56.045Z,100258.29
2022-12-17T23:18:01.005Z,100263.75
2022-12-17T23:21:08.196Z,100271.81
2022-12-17T23:24:11.082Z,100278.04
2022-12-17T23:27:13.808Z,100285.25
2022-12-17T23:30:17.767Z,100289.48
2022-12-17T23:33:20.552Z,100289.42
2022-12-17T23:36:25.071Z,100291.83
2022-12-17T23:39:27.874Z,100293.88
2022-12-17T23:42:30.851Z,100300.54
2022-12-17T23:45:33.604Z,100306.63
2022-12-17T23:48:44.822Z,100309.55
2022-12-17T23:51:48.421Z,100316.13
2022-12-17T23:54:51.187Z,100320.71
2022-12-17T23:57:55.962Z,100322.41
